Time;durP1;ratioP1;P1;durP2;ratioP2;P2;SDS_P1;SDS_P2;PMS_P1;PMS_P2;Temp;Humidity;BMP_temperature;BMP_pressure;BME280_temperature;BME280_humidity;BME280_pressure;Samples;Min_cycle;Max_cycle;Signal;HPM_P1;HPM_P2
2022/12/12 00:01:35;;;;;;;5.07;3.60;;;;;;;9.84;82.78;99304.50;5031395;28;20037;-76
2022/12/12 00:04:01;;;;;;;5.00;3.58;;;;;;;9.78;82.61;99298.91;5031294;28;20033;-76
2022/12/12 00:06:27;;;;;;;4.93;3.42;;;;;;;9.78;81.87;99288.16;5031309;28;20064;-76
2022/12/12 00:08:53;;;;;;;4.05;3.40;;;;;;;9.82;81.65;99302.94;5031240;28;20025;-75
2022/12/12 00:11:19;;;;;;;6.22;4.65;;;;;;;9.90;81.05;99313.78;5033818;28;20036;-75
2022/12/12 00:13:45;;;;;;;11.77;4.88;;;;;;;9.82;81.07;99306.50;5033081;28;20033;-76
2022/12/12 00:16:11;;;;;;;5.75;3.75;;;;;;;9.90;80.96;99312.94;5031204;28;20030;-75
2022/12/12 00:18:37;;;;;;;4.80;3.75;;;;;;;9.91;80.72;99320.84;5031126;28;20025;-77
2022/12/12 00:21:06;;;;;;;5.93;3.90;;;;;;;9.77;80.18;99324.91;5030148;28;20482;-75
2022/12/12 00:23:32;;;;;;;5.07;4.40;;;;;;;9.72;80.34;99332.53;5031466;28;20025;-76
2022/12/12 00:26:01;;;;;;;8.88;5.00;;;;;;;9.68;80.56;99346.44;5031026;28;20025;-76
2022/12/12 00:28:27;;;;;;;7.20;4.03;;;;;;;9.65;80.60;99347.59;5030663;28;20022;-77
2022/12/12 00:30:53;;;;;;;7.07;4.75;;;;;;;9.67;80.45;99350.97;5031286;28;20386;-76
2022/12/12 00:33:18;;;;;;;4.78;4.13;;;;;;;9.68;80.77;99339.22;5031479;28;20032;-77
2022/12/12 00:35:49;;;;;;;6.35;5.28;;;;;;;9.52;80.11;99322.09;5030991;28;20100;-77
2022/12/12 00:38:16;;;;;;;5.85;4.82;;;;;;;9.64;80.18;99345.88;5030909;28;20180;-76
2022/12/12 00:40:42;;;;;;;9.00;6.43;;;;;;;9.61;80.07;99350.72;5030625;28;20477;-76
2022/12/12 00:43:07;;;;;;;8.27;5.38;;;;;;;9.61;79.99;99351.56;5030309;28;20029;-75
2022/12/12 00:45:33;;;;;;;7.38;5.25;;;;;;;9.61;79.67;99351.56;5030746;28;20030;-75
2022/12/12 00:47:58;;;;;;;6.38;5.22;;;;;;;9.58;79.57;99357.22;5030213;28;20398;-74
2022/12/12 00:50:23;;;;;;;8.10;6.28;;;;;;;9.58;79.72;99351.00;5030409;28;20037;-75
2022/12/12 00:52:49;;;;;;;6.40;5.05;;;;;;;9.44;79.13;99376.50;5030061;28;20076;-75
2022/12/12 00:55:14;;;;;;;9.20;6.47;;;;;;;9.33;79.39;99373.19;5030308;28;20028;-75
2022/12/12 00:57:40;;;;;;;9.52;7.25;;;;;;;9.29;79.12;99373.44;5030183;28;20116;-75
2022/12/12 01:00:07;;;;;;;9.23;7.22;;;;;;;9.23;79.05;99378.59;5030523;28;20034;-75
2022/12/12 01:02:33;;;;;;;9.55;6.93;;;;;;;9.23;78.89;99370.53;5028764;28;20040;-76
2022/12/12 01:04:59;;;;;;;11.02;8.20;;;;;;;8.89;79.38;99337.19;5030390;28;20025;-75
2022/12/12 01:07:24;;;;;;;13.32;7.78;;;;;;;8.96;78.97;99368.63;5030018;28;20060;-74
2022/12/12 01:09:50;;;;;;;13.00;8.15;;;;;;;9.00;78.75;99396.00;5029867;28;20037;-76
2022/12/12 01:12:15;;;;;;;11.45;9.02;;;;;;;8.95;79.23;99395.59;5030879;28;20040;-76
2022/12/12 01:14:41;;;;;;;12.88;9.25;;;;;;;8.92;79.75;99401.25;5033050;28;20084;-76
2022/12/12 01:17:06;;;;;;;13.30;8.95;;;;;;;8.82;79.33;99397.72;5033123;28;20037;-75
2022/12/12 01:19:31;;;;;;;15.30;10.65;;;;;;;8.72;79.62;99409.31;5033229;28;20026;-76
2022/12/12 01:21:57;;;;;;;14.45;10.50;;;;;;;8.73;79.85;99416.38;5029831;28;20036;-75
2022/12/12 01:24:22;;;;;;;20.10;11.57;;;;;;;8.77;80.11;99413.41;5029789;28;20477;-75
2022/12/12 01:26:48;;;;;;;21.80;11.10;;;;;;;8.64;78.85;99402.97;5029931;28;20033;-75
2022/12/12 01:29:13;;;;;;;16.17;10.70;;;;;;;8.58;78.15;99408.91;5029861;28;20040;-75
2022/12/12 01:31:39;;;;;;;16.15;11.32;;;;;;;8.48;78.84;99398.19;5029700;28;20037;-75
2022/12/12 01:34:04;;;;;;;18.45;11.88;;;;;;;8.48;78.91;99394.66;5027475;28;20045;-76
2022/12/12 01:36:30;;;;;;;15.98;10.77;;;;;;;8.47;78.24;99407.19;5029681;28;20564;-76
2022/12/12 01:38:56;;;;;;;18.13;12.77;;;;;;;8.50;78.49;99401.56;5029614;28;20036;-74
2022/12/12 01:41:22;;;;;;;16.33;11.90;;;;;;;8.40;77.58;99410.59;5027008;28;20037;-75
2022/12/12 01:43:48;;;;;;;16.45;11.68;;;;;;;8.39;78.00;99415.09;5029552;28;20032;-75
2022/12/12 01:46:37;;;;;;;17.67;12.45;;;;;;;8.52;78.16;99431.75;5029355;28;20413;-75
2022/12/12 01:49:26;;;;;;;18.60;12.15;;;;;;;8.50;78.15;99423.00;5029416;28;20165;-75
2022/12/12 01:51:57;;;;;;;17.35;12.18;;;;;;;8.29;77.73;99413.44;4990300;28;20485;-74
2022/12/12 01:54:26;;;;;;;18.27;12.63;;;;;;;8.36;77.77;99428.78;5007062;28;20113;-75
2022/12/12 01:56:55;;;;;;;17.15;13.63;;;;;;;8.30;77.97;99410.59;5006845;28;20469;-75
2022/12/12 01:59:24;;;;;;;19.33;11.90;;;;;;;8.52;77.80;99437.13;5007475;28;20478;-74
2022/12/12 02:01:50;;;;;;;26.05;12.68;;;;;;;8.43;77.57;99447.81;5007012;28;20058;-76
2022/12/12 02:04:17;;;;;;;17.67;12.48;;;;;;;8.33;77.70;99415.66;5006819;28;20580;-75
2022/12/12 02:06:44;;;;;;;18.63;12.82;;;;;;;8.41;77.71;99447.13;5007005;28;20033;-76
2022/12/12 02:09:12;;;;;;;23.10;14.40;;;;;;;8.21;77.04;99416.75;5006905;28;20501;-76
2022/12/12 02:11:47;;;;;;;17.33;11.95;;;;;;;8.37;77.36;99446.56;5007238;28;20583;-74
2022/12/12 02:14:17;;;;;;;19.35;13.55;;;;;;;8.42;77.66;99451.47;5009933;28;20057;-75
2022/12/12 02:16:53;;;;;;;25.33;13.18;;;;;;;8.48;77.55;99457.13;5010071;28;20544;-76
2022/12/12 02:19:18;;;;;;;19.23;13.05;;;;;;;8.45;76.90;99454.72;5011811;28;20034;-74
2022/12/12 02:22:12;;;;;;;20.27;13.70;;;;;;;8.54;76.64;99456.56;5009760;28;20046;-74
2022/12/12 02:24:59;;;;;;;22.13;13.57;;;;;;;8.63;76.90;99479.84;5008375;28;20034;-75
2022/12/12 02:28:06;;;;;;;17.75;12.85;;;;;;;8.43;76.67;99437.97;5007313;28;20501;-75
2022/12/12 02:30:37;;;;;;;18.98;13.65;;;;;;;8.51;76.44;99456.84;5028926;28;20509;-75
2022/12/12 02:33:06;;;;;;;21.63;14.68;;;;;;;8.63;76.61;99487.88;5028871;28;20141;-75
2022/12/12 02:35:50;;;;;;;17.92;12.15;;;;;;;8.65;75.56;99483.22;5029002;28;20033;-75
2022/12/12 02:38:32;;;;;;;21.25;13.70;;;;;;;8.64;75.64;99483.38;5028728;28;20405;-74
2022/12/12 02:41:34;;;;;;;17.75;12.63;;;;;;;8.65;75.42;99488.56;5028870;28;20032;-74
2022/12/12 02:44:00;;;;;;;20.10;14.15;;;;;;;8.42;74.79;99446.97;5029030;28;20041;-73
2022/12/12 02:46:56;;;;;;;21.65;14.40;;;;;;;8.57;74.98;99482.22;5028878;28;20037;-74
2022/12/12 02:49:48;;;;;;;18.85;13.35;;;;;;;8.56;75.14;99484.06;5028553;28;20528;-74
2022/12/12 02:52:15;;;;;;;22.38;13.95;;;;;;;8.60;74.97;99477.44;5008217;28;20169;-74
2022/12/12 02:54:41;;;;;;;22.60;14.13;;;;;;;8.38;74.77;99436.69;5010115;28;20037;-77
2022/12/12 02:57:18;;;;;;;23.45;14.50;;;;;;;8.53;74.80;99478.97;5010704;28;20102;-77
2022/12/12 03:00:03;;;;;;;20.55;14.45;;;;;;;8.38;74.81;99475.03;5010923;28;20037;-76
2022/12/12 03:09:07;;;;;;;19.13;14.45;;;;;;;8.34;74.74;99491.53;5010203;28;20049;-75
2022/12/12 03:11:49;;;;;;;23.27;14.18;;;;;;;8.35;74.67;99488.69;5011443;28;20064;-75
2022/12/12 03:14:23;;;;;;;24.98;15.60;;;;;;;8.41;74.34;99490.00;5015283;28;20490;-75
2022/12/12 03:16:57;;;;;;;24.60;13.52;;;;;;;8.38;74.19;99503.66;5010531;28;20041;-75
2022/12/12 03:19:35;;;;;;;19.00;14.40;;;;;;;8.40;73.94;99505.22;5010035;28;20522;-75
2022/12/12 03:22:10;;;;;;;19.50;14.60;;;;;;;8.30;73.70;99517.72;5009729;28;20034;-74
2022/12/12 03:24:38;;;;;;;21.48;15.32;;;;;;;8.41;73.95;99514.09;4960975;28;20092;-76
2022/12/12 03:27:11;;;;;;;20.90;13.68;;;;;;;8.35;73.71;99520.84;5012062;28;20040;-76
2022/12/12 03:29:45;;;;;;;22.45;14.70;;;;;;;8.37;73.54;99524.25;5028653;28;20105;-75
2022/12/12 03:32:16;;;;;;;23.48;15.77;;;;;;;8.21;73.40;99508.66;5033825;28;20105;-75
2022/12/12 03:34:46;;;;;;;22.45;14.20;;;;;;;8.26;73.17;99527.00;5032055;28;20033;-76
2022/12/12 03:37:26;;;;;;;25.45;14.52;;;;;;;8.31;73.10;99523.94;5031921;28;20030;-75
2022/12/12 03:40:17;;;;;;;19.98;14.45;;;;;;;8.32;72.95;99518.44;5031474;28;20095;-75
2022/12/12 03:42:52;;;;;;;23.15;15.20;;;;;;;8.27;72.63;99517.97;5009350;28;20037;-74
2022/12/12 03:45:25;;;;;;;21.73;14.05;;;;;;;8.07;72.08;99495.63;5009398;28;20034;-75
2022/12/12 03:47:57;;;;;;;24.23;14.65;;;;;;;8.32;71.81;99531.00;5009252;28;20030;-75
2022/12/12 03:51:17;;;;;;;25.92;14.65;;;;;;;8.26;72.26;99532.34;5009451;28;20088;-75
2022/12/12 03:53:53;;;;;;;21.45;14.00;;;;;;;8.23;71.77;99532.63;4932179;29;20055;-74
2022/12/12 03:56:33;;;;;;;22.02;14.50;;;;;;;8.10;71.77;99537.38;4932338;29;20035;-75
2022/12/12 03:59:25;;;;;;;22.75;15.25;;;;;;;8.11;71.96;99533.72;4932060;29;20504;-76
2022/12/12 04:01:58;;;;;;;23.42;15.15;;;;;;;7.77;72.03;99513.59;4875164;29;20040;-75
2022/12/12 04:04:35;;;;;;;20.75;13.95;;;;;;;7.79;71.97;99522.31;4874606;29;20588;-75
2022/12/12 04:07:04;;;;;;;19.65;14.02;;;;;;;7.93;72.17;99556.75;4875189;29;20041;-77
2022/12/12 04:15:48;;;;;;;25.35;13.88;;;;;;;7.66;71.32;99579.59;4875406;29;20044;-74
2022/12/12 04:18:24;;;;;;;23.52;14.70;;;;;;;7.67;72.40;99578.59;4874987;29;20028;-75
2022/12/12 04:23:48;;;;;;;22.95;14.18;;;;;;;7.75;71.53;99585.13;4893560;29;20096;-74
2022/12/12 04:26:38;;;;;;;22.77;15.10;;;;;;;7.71;71.40;99583.66;4893702;29;20040;-76
2022/12/12 04:29:18;;;;;;;27.80;15.32;;;;;;;7.62;71.19;99580.81;4924283;29;20043;-76
2022/12/12 04:32:11;;;;;;;21.88;15.18;;;;;;;7.65;71.42;99575.22;4952645;29;20051;-75
2022/12/12 04:35:08;;;;;;;24.63;14.95;;;;;;;7.70;71.43;99593.56;4953059;29;20031;-75
2022/12/12 04:37:54;;;;;;;24.67;15.05;;;;;;;7.73;70.57;99587.09;4953334;29;20038;-77
2022/12/12 04:40:42;;;;;;;22.27;15.23;;;;;;;7.73;70.91;99587.94;5033010;28;20030;-75
2022/12/12 04:43:16;;;;;;;30.23;14.95;;;;;;;7.49;70.94;99541.91;5031007;28;20083;-74
2022/12/12 04:45:47;;;;;;;22.60;15.10;;;;;;;7.62;71.69;99575.47;5030462;28;20029;-75
2022/12/12 04:48:17;;;;;;;24.52;15.43;;;;;;;7.56;71.68;99565.28;5030924;28;20036;-75
2022/12/12 04:50:49;;;;;;;25.60;15.95;;;;;;;7.34;71.82;99532.50;5030503;28;20490;-75
2022/12/12 04:53:19;;;;;;;23.05;14.75;;;;;;;7.40;72.50;99564.06;5031756;28;20072;-74
2022/12/12 04:55:52;;;;;;;22.80;14.93;;;;;;;7.11;72.06;99531.78;5030903;28;20209;-74
2022/12/12 04:58:18;;;;;;;26.65;15.73;;;;;;;7.15;72.43;99565.31;5028931;28;20386;-76
2022/12/12 05:00:57;;;;;;;22.45;15.13;;;;;;;7.19;72.85;99580.09;5030174;28;20076;-75
2022/12/12 05:03:22;;;;;;;23.38;16.25;;;;;;;7.24;72.34;99599.28;5027476;28;20037;-75
2022/12/12 05:05:54;;;;;;;28.92;16.92;;;;;;;7.03;72.83;99591.22;5029975;28;20035;-75
2022/12/12 05:08:29;;;;;;;26.00;16.08;;;;;;;7.27;72.47;99623.09;5029907;28;20112;-75
2022/12/12 05:10:59;;;;;;;30.00;15.50;;;;;;;7.26;71.91;99632.09;5029798;28;20037;-75
2022/12/12 05:13:42;;;;;;;22.73;15.15;;;;;;;7.20;71.00;99621.91;5030504;28;20083;-75
2022/12/12 05:16:23;;;;;;;34.30;15.80;;;;;;;7.20;71.66;99648.66;5029905;28;20037;-74
2022/12/12 05:18:49;;;;;;;27.75;14.40;;;;;;;7.16;72.01;99636.50;5029856;28;20022;-74
2022/12/12 05:21:15;;;;;;;23.50;15.27;;;;;;;7.26;71.27;99649.94;5029907;28;20036;-75
2022/12/12 05:23:41;;;;;;;24.55;15.15;;;;;;;7.28;70.91;99651.53;5029374;28;20025;-74
2022/12/12 05:26:27;;;;;;;24.20;15.15;;;;;;;7.19;70.76;99646.09;5029635;28;20124;-74
2022/12/12 05:28:53;;;;;;;24.10;15.65;;;;;;;7.19;70.69;99657.63;5029158;28;20041;-77
2022/12/12 05:31:19;;;;;;;49.67;16.73;;;;;;;7.15;70.81;99666.91;5029908;28;20141;-75
2022/12/12 05:33:45;;;;;;;25.15;15.88;;;;;;;6.88;70.58;99600.50;5029667;28;20454;-76
2022/12/12 05:36:10;;;;;;;28.20;17.30;;;;;;;7.32;70.71;99660.13;5030109;28;20481;-75
2022/12/12 05:38:36;;;;;;;27.10;16.13;;;;;;;7.46;71.41;99658.00;5031504;28;20452;-76
2022/12/12 05:41:02;;;;;;;31.13;16.08;;;;;;;7.55;71.23;99662.56;5031686;28;20029;-76
2022/12/12 05:43:27;;;;;;;23.58;13.23;;;;;;;7.57;70.36;99679.38;5031659;28;20022;-76
2022/12/12 05:45:53;;;;;;;30.55;15.95;;;;;;;7.63;70.12;99696.72;5028056;28;20094;-76
2022/12/12 05:48:18;;;;;;;31.58;15.75;;;;;;;7.62;69.44;99695.88;5029773;28;20064;-75
2022/12/12 05:50:44;;;;;;;27.15;15.93;;;;;;;7.77;69.78;99701.75;5028993;28;20025;-76
2022/12/12 05:53:10;;;;;;;29.67;15.68;;;;;;;7.81;69.34;99695.19;5028175;28;20124;-74
2022/12/12 05:55:36;;;;;;;25.23;14.27;;;;;;;7.85;68.34;99701.13;5029300;28;20037;-74
2022/12/12 05:58:01;;;;;;;20.77;13.32;;;;;;;7.57;67.78;99663.31;5029749;28;20021;-76
2022/12/12 06:00:26;;;;;;;25.35;14.57;;;;;;;7.70;68.08;99675.66;5040493;28;20400;-75
2022/12/12 06:02:52;;;;;;;26.45;16.13;;;;;;;7.72;68.20;99697.78;5047995;28;20029;-75
2022/12/12 06:05:18;;;;;;;24.83;15.00;;;;;;;7.77;68.68;99700.94;5047608;28;20037;-75
2022/12/12 06:07:43;;;;;;;31.10;15.38;;;;;;;7.93;69.07;99712.03;5047463;28;20039;-75
2022/12/12 06:10:09;;;;;;;27.35;15.00;;;;;;;7.95;68.52;99694.03;5045496;28;20053;-76
2022/12/12 06:12:34;;;;;;;26.52;13.65;;;;;;;8.09;67.58;99715.09;5047816;28;20037;-76
2022/12/12 06:15:00;;;;;;;24.35;12.90;;;;;;;7.78;67.18;99646.41;5047820;28;20052;-77
2022/12/12 06:17:25;;;;;;;27.70;14.93;;;;;;;8.15;66.71;99679.75;5047823;28;20036;-75
2022/12/12 06:19:51;;;;;;;28.20;16.92;;;;;;;8.33;66.43;99726.41;5047485;28;20481;-76
2022/12/12 06:22:17;;;;;;;22.15;13.95;;;;;;;8.42;65.88;99747.03;5047435;28;20134;-75
2022/12/12 06:24:43;;;;;;;25.05;14.40;;;;;;;8.49;65.83;99756.25;5047877;28;20092;-76
2022/12/12 06:27:08;;;;;;;26.60;13.85;;;;;;;8.40;65.75;99740.13;5050681;28;20523;-76
2022/12/12 06:29:34;;;;;;;24.35;13.38;;;;;;;8.52;65.48;99739.91;5051908;28;20575;-76
2022/12/12 06:31:59;;;;;;;28.10;13.07;;;;;;;8.49;65.85;99740.19;5051860;28;20035;-77
2022/12/12 06:34:25;;;;;;;27.35;13.75;;;;;;;8.57;65.58;99756.44;5052422;28;20028;-75
2022/12/12 06:36:50;;;;;;;27.35;14.43;;;;;;;8.41;65.33;99734.63;5051990;28;20051;-75
2022/12/12 06:39:16;;;;;;;32.15;13.85;;;;;;;8.70;64.96;99770.47;5051587;28;20086;-76
2022/12/12 06:41:42;;;;;;;27.52;14.30;;;;;;;8.83;65.15;99782.81;5052202;28;20036;-74
2022/12/12 06:44:08;;;;;;;27.60;16.27;;;;;;;8.64;64.96;99728.13;5057398;28;20029;-77
2022/12/12 06:46:33;;;;;;;32.75;14.93;;;;;;;8.91;64.58;99754.31;5056509;28;20029;-76
2022/12/12 06:48:59;;;;;;;26.40;14.18;;;;;;;9.07;63.88;99769.91;5052262;28;20112;-75
2022/12/12 06:51:35;;;;;;;33.58;14.15;;;;;;;9.19;64.22;99780.41;5051526;28;20499;-77
2022/12/12 06:54:00;;;;;;;26.77;13.75;;;;;;;9.11;63.70;99749.88;5051696;28;20031;-76
2022/12/12 06:56:26;;;;;;;35.72;13.60;;;;;;;9.21;63.38;99742.69;5051548;28;20024;-76
2022/12/12 06:58:53;;;;;;;31.77;14.82;;;;;;;9.36;63.00;99770.81;5051131;28;20021;-75
2022/12/12 07:01:20;;;;;;;26.55;12.25;;;;;;;9.34;63.30;99778.16;5051390;28;20064;-76
2022/12/12 07:03:48;;;;;;;24.10;12.70;;;;;;;9.16;63.49;99755.69;5051350;28;20035;-77
2022/12/12 07:06:15;;;;;;;23.98;13.93;;;;;;;9.30;63.62;99792.84;5051869;28;20025;-75
2022/12/12 07:08:41;;;;;;;37.25;14.30;;;;;;;9.37;63.95;99796.69;5051185;28;20078;-76
2022/12/12 07:11:16;;;;;;;29.30;15.10;;;;;;;9.47;63.90;99788.66;5051903;28;20039;-74
2022/12/12 07:13:41;;;;;;;30.63;14.95;;;;;;;9.51;63.13;99780.16;5051450;28;20036;-76
2022/12/12 07:16:07;;;;;;;38.17;13.40;;;;;;;9.67;62.85;99783.16;5050909;28;20107;-75
2022/12/12 07:18:33;;;;;;;29.63;13.70;;;;;;;9.78;62.88;99787.56;5048435;28;20037;-76
2022/12/12 07:21:06;;;;;;;20.35;13.13;;;;;;;9.94;61.98;99793.22;5050908;28;20465;-76
2022/12/12 07:23:32;;;;;;;35.35;14.18;;;;;;;9.98;60.92;99789.25;5048163;28;20530;-74
2022/12/12 07:25:57;;;;;;;21.50;13.90;;;;;;;10.03;60.88;99784.31;5050841;28;20025;-75
2022/12/12 07:28:23;;;;;;;25.15;14.02;;;;;;;9.93;61.11;99742.34;5050623;28;20706;-77
2022/12/12 07:30:48;;;;;;;21.08;13.98;;;;;;;10.20;59.83;99789.00;5051227;28;20575;-75
2022/12/12 07:33:15;;;;;;;24.73;12.82;;;;;;;10.30;60.48;99802.44;5050679;28;20033;-75
2022/12/12 07:35:42;;;;;;;21.33;11.45;;;;;;;10.31;59.65;99794.22;5050449;28;20028;-77
2022/12/12 07:38:08;;;;;;;24.52;12.43;;;;;;;10.39;60.00;99790.84;5050843;28;20033;-75
2022/12/12 07:40:34;;;;;;;22.63;12.02;;;;;;;10.59;59.78;99805.91;5054818;28;20033;-77
2022/12/12 07:42:59;;;;;;;24.85;13.50;;;;;;;10.66;59.10;99798.97;5052446;28;20140;-75
2022/12/12 07:45:25;;;;;;;27.23;13.40;;;;;;;10.74;59.29;99791.03;5060207;28;20119;-74
2022/12/12 07:47:51;;;;;;;43.65;13.05;;;;;;;10.80;58.40;99794.97;5062182;28;20047;-74
2022/12/12 07:50:17;;;;;;;23.98;12.90;;;;;;;10.83;58.28;99787.44;5057197;28;20119;-76
2022/12/12 07:52:42;;;;;;;23.50;11.50;;;;;;;10.98;57.99;99789.69;5052633;28;20118;-76
2022/12/12 07:55:08;;;;;;;21.88;12.10;;;;;;;10.99;56.91;99797.59;5050999;28;20155;-76
2022/12/12 07:57:34;;;;;;;20.38;11.88;;;;;;;11.07;57.12;99788.78;5050575;28;20025;-76
2022/12/12 08:00:00;;;;;;;17.55;10.75;;;;;;;11.26;56.48;99799.44;5050429;28;20466;-75
2022/12/12 08:02:25;;;;;;;24.95;11.57;;;;;;;11.30;56.27;99801.69;5049322;28;20025;-74
2022/12/12 08:04:50;;;;;;;22.60;10.63;;;;;;;11.41;56.01;99806.03;5048252;28;20492;-76
2022/12/12 08:07:16;;;;;;;26.58;10.23;;;;;;;11.25;55.53;99768.97;5048259;28;21110;-75
2022/12/12 08:09:41;;;;;;;23.40;11.70;;;;;;;11.62;54.99;99828.16;5048238;28;20033;-77
2022/12/12 08:12:07;;;;;;;28.42;11.40;;;;;;;11.77;54.48;99840.13;5048165;28;20093;-77
2022/12/12 08:14:32;;;;;;;16.75;9.55;;;;;;;11.73;54.12;99819.91;5048534;28;20103;-77
2022/12/12 08:16:58;;;;;;;14.77;9.18;;;;;;;11.95;53.63;99859.91;5048148;28;20037;-77
2022/12/12 08:19:24;;;;;;;19.27;10.18;;;;;;;11.96;53.54;99858.88;5048354;28;20461;-75
2022/12/12 08:21:49;;;;;;;14.98;9.57;;;;;;;11.91;53.20;99858.50;5048156;28;20041;-75
2022/12/12 08:24:15;;;;;;;16.95;10.65;;;;;;;11.98;53.25;99851.50;5048108;28;20409;-78
2022/12/12 08:26:42;;;;;;;32.70;10.90;;;;;;;12.08;53.76;99853.28;5048070;28;20408;-76
2022/12/12 08:29:08;;;;;;;19.45;11.20;;;;;;;12.18;53.09;99852.19;5047757;28;20047;-76
2022/12/12 08:31:34;;;;;;;15.40;9.25;;;;;;;12.06;53.24;99820.22;5047847;28;20582;-75
2022/12/12 08:34:00;;;;;;;24.35;11.48;;;;;;;12.18;53.88;99845.94;5047763;28;20025;-75
2022/12/12 08:36:31;;;;;;;24.42;11.75;;;;;;;11.82;53.31;99797.44;5049617;28;20106;-75
2022/12/12 08:39:08;;;;;;;26.83;16.75;;;;;;;11.49;53.65;99730.75;5050352;28;20100;-77
2022/12/12 08:41:36;;;;;;;20.52;11.43;;;;;;;12.06;53.42;99821.06;5050207;28;20032;-76
2022/12/12 08:44:03;;;;;;;19.27;11.20;;;;;;;12.06;53.90;99836.41;5050084;28;20025;-76
2022/12/12 08:46:28;;;;;;;25.52;11.48;;;;;;;11.91;54.10;99828.84;5050521;28;20060;-76
2022/12/12 08:48:54;;;;;;;15.05;10.65;;;;;;;11.85;53.91;99839.38;5049878;28;20060;-76
2022/12/12 08:51:19;;;;;;;19.63;9.70;;;;;;;11.85;54.26;99829.47;5053514;28;20535;-76
2022/12/12 08:53:46;;;;;;;19.92;9.43;;;;;;;11.84;54.38;99837.69;5055316;28;20021;-75
2022/12/12 08:56:12;;;;;;;20.73;9.07;;;;;;;11.89;53.91;99830.88;5053041;28;20488;-76
2022/12/12 08:58:37;;;;;;;17.65;9.20;;;;;;;11.69;53.85;99813.09;5050209;28;20025;-76
2022/12/12 09:01:09;;;;;;;21.40;8.85;;;;;;;11.87;53.59;99842.75;5049910;28;20056;-77
2022/12/12 09:03:34;;;;;;;24.17;10.35;;;;;;;11.67;53.05;99809.72;5050061;28;20032;-77
2022/12/12 09:06:00;;;;;;;20.50;10.82;;;;;;;11.84;53.95;99843.94;5049786;28;20412;-74
2022/12/12 09:08:25;;;;;;;20.13;9.77;;;;;;;11.85;53.72;99847.47;5049877;28;20036;-75
2022/12/12 09:10:51;;;;;;;26.15;9.85;;;;;;;11.82;53.40;99851.31;5049753;28;20468;-75
2022/12/12 09:13:17;;;;;;;26.48;12.98;;;;;;;11.68;52.72;99845.56;5048241;28;20040;-76
2022/12/12 09:15:42;;;;;;;21.67;12.55;;;;;;;11.87;54.08;99859.78;5049818;28;20091;-76
2022/12/12 09:18:08;;;;;;;18.75;10.77;;;;;;;11.84;53.68;99859.22;5049585;28;20032;-77
2022/12/12 09:20:33;;;;;;;19.48;10.88;;;;;;;11.57;54.18;99841.22;5049452;28;20068;-75
2022/12/12 09:22:58;;;;;;;23.23;10.30;;;;;;;11.66;53.61;99845.72;5049437;28;20469;-75
2022/12/12 09:25:24;;;;;;;15.13;8.73;;;;;;;11.48;53.07;99831.34;5049694;28;20071;-77
2022/12/12 09:27:49;;;;;;;32.85;11.07;;;;;;;11.69;53.75;99868.78;5049610;28;20085;-76
2022/12/12 09:30:15;;;;;;;33.05;16.08;;;;;;;11.82;54.40;99872.03;5049152;28;20036;-76
2022/12/12 09:32:41;;;;;;;32.28;18.75;;;;;;;11.80;55.72;99868.63;5049256;28;20581;-77
2022/12/12 09:35:07;;;;;;;38.17;18.70;;;;;;;11.82;55.99;99864.78;5049354;28;20450;-77
2022/12/12 09:37:33;;;;;;;45.65;19.15;;;;;;;11.84;56.63;99865.47;5049329;28;20361;-78
2022/12/12 09:39:58;;;;;;;38.75;21.38;;;;;;;11.77;57.00;99877.84;5049159;28;20025;-76
2022/12/12 09:42:26;;;;;;;32.50;21.00;;;;;;;11.59;58.51;99863.47;5049117;28;20440;-75
2022/12/12 09:44:56;;;;;;;31.60;19.77;;;;;;;11.35;58.59;99834.41;5049590;28;20040;-77
2022/12/12 09:47:35;;;;;;;30.98;19.52;;;;;;;11.58;58.69;99886.03;5051789;28;20075;-77
2022/12/12 09:50:13;;;;;;;33.88;20.33;;;;;;;11.43;60.13;99882.13;5051528;28;20415;-76
2022/12/12 09:52:40;;;;;;;35.03;20.35;;;;;;;11.37;59.99;99871.94;5047929;28;20368;-78
2022/12/12 09:55:37;;;;;;;33.40;19.13;;;;;;;11.50;59.60;99879.69;5051603;28;20034;-78
2022/12/12 09:58:31;;;;;;;36.30;19.98;;;;;;;11.53;59.58;99892.84;5055699;28;20087;-76
2022/12/12 10:01:23;;;;;;;32.55;18.33;;;;;;;11.26;59.28;99897.19;5049810;28;20481;-77
2022/12/12 10:04:05;;;;;;;36.22;19.92;;;;;;;11.14;59.48;99876.84;5049166;28;20119;-76
2022/12/12 10:07:02;;;;;;;45.65;26.80;;;;;;;11.12;59.70;99888.75;5048851;28;20091;-76
2022/12/12 10:09:44;;;;;;;34.72;20.27;;;;;;;10.91;59.67;99892.50;5047481;28;20039;-75
2022/12/12 10:12:17;;;;;;;45.05;21.90;;;;;;;10.54;60.42;99845.84;5048849;28;20067;-76
2022/12/12 10:14:57;;;;;;;44.05;21.58;;;;;;;10.89;60.53;99883.69;5048956;28;20108;-76
2022/12/12 10:17:31;;;;;;;45.47;21.73;;;;;;;11.01;61.18;99884.38;5048812;28;20104;-76
2022/12/12 10:20:19;;;;;;;38.17;21.15;;;;;;;11.05;60.43;99887.63;5048621;28;20029;-77
2022/12/12 10:22:55;;;;;;;47.25;24.70;;;;;;;11.06;60.45;99860.59;5006656;28;20037;-76
2022/12/12 10:25:32;;;;;;;47.05;24.73;;;;;;;11.04;60.10;99881.38;5006490;28;20044;-75
2022/12/12 10:28:10;;;;;;;36.60;21.73;;;;;;;11.17;60.77;99891.84;5006756;28;20066;-77
2022/12/12 10:30:52;;;;;;;37.63;24.52;;;;;;;11.31;60.14;99886.81;5006451;28;20044;-77
2022/12/12 10:33:50;;;;;;;38.65;23.63;;;;;;;11.36;59.77;99879.16;5006342;28;20045;-77
2022/12/12 10:36:39;;;;;;;45.05;23.67;;;;;;;11.55;59.62;99886.31;5006286;28;20052;-75
2022/12/12 10:39:27;;;;;;;39.72;23.77;;;;;;;11.80;58.77;99874.03;5006726;28;20068;-77
2022/12/12 10:42:31;;;;;;;35.30;18.90;;;;;;;11.84;58.38;99868.16;5006297;28;20452;-77
2022/12/12 10:45:02;;;;;;;35.50;17.30;;;;;;;12.07;57.70;99881.22;4976924;28;20080;-77
2022/12/12 10:47:27;;;;;;;32.70;17.60;;;;;;;12.13;56.94;99870.69;5006304;28;20057;-77
2022/12/12 10:50:25;;;;;;;31.77;16.85;;;;;;;12.15;56.87;99863.28;5006444;28;20098;-77
2022/12/12 10:52:50;;;;;;;32.63;22.05;;;;;;;12.17;56.50;99871.22;4928836;29;20532;-77
2022/12/12 10:55:22;;;;;;;33.70;21.10;;;;;;;12.13;56.30;99869.84;4928513;29;20047;-75
2022/12/12 10:58:00;;;;;;;39.33;21.00;;;;;;;12.14;56.78;99833.81;4928887;29;20048;-76
2022/12/12 11:00:29;;;;;;;42.95;19.10;;;;;;;12.18;56.46;99836.00;4975151;28;20054;-76
2022/12/12 11:02:57;;;;;;;37.88;20.40;;;;;;;12.21;56.03;99840.25;4991631;28;20512;-76
2022/12/12 11:05:35;;;;;;;47.10;21.90;;;;;;;12.38;56.33;99866.38;4972720;28;20154;-76
2022/12/12 11:08:16;;;;;;;45.88;21.58;;;;;;;12.32;56.19;99823.84;4986773;28;20030;-77
2022/12/12 11:10:42;;;;;;;44.40;22.58;;;;;;;12.48;56.33;99826.66;4986482;28;20042;-76
2022/12/12 11:13:07;;;;;;;40.15;22.35;;;;;;;12.83;56.10;99858.13;4988479;28;20042;-78
2022/12/12 11:15:39;;;;;;;40.55;21.80;;;;;;;12.86;55.16;99841.63;4990100;28;20034;-76
2022/12/12 11:18:05;;;;;;;53.38;20.60;;;;;;;12.93;55.53;99821.09;4990133;28;20042;-77
2022/12/12 11:20:31;;;;;;;65.97;27.52;;;;;;;13.33;55.15;99850.22;4990013;28;20035;-77
2022/12/12 11:22:56;;;;;;;47.58;21.88;;;;;;;13.48;54.65;99832.38;4990095;28;20042;-77
2022/12/12 11:25:31;;;;;;;44.65;18.42;;;;;;;13.49;54.09;99839.47;4989596;28;20034;-75
2022/12/12 11:28:01;;;;;;;36.88;17.33;;;;;;;13.60;53.82;99839.19;4989871;28;20038;-76
2022/12/12 11:30:35;;;;;;;20.75;13.77;;;;;;;13.56;53.38;99856.72;5038230;28;20041;-78
2022/12/12 11:33:02;;;;;;;21.00;13.30;;;;;;;13.35;53.09;99849.03;5051608;28;20029;-78
2022/12/12 11:35:37;;;;;;;26.42;13.45;;;;;;;13.35;53.47;99859.84;5050569;28;20036;-77
2022/12/12 11:38:16;;;;;;;20.42;12.82;;;;;;;13.26;53.44;99854.56;5052404;28;20472;-75
2022/12/12 11:40:42;;;;;;;32.53;13.73;;;;;;;12.65;53.53;99771.84;5052920;28;20081;-77
2022/12/12 11:43:26;;;;;;;32.75;13.95;;;;;;;13.01;53.97;99858.94;5052330;28;20473;-76
2022/12/12 11:46:01;;;;;;;30.63;14.60;;;;;;;13.05;54.27;99869.25;5052029;28;20025;-76
2022/12/12 11:48:29;;;;;;;26.45;13.00;;;;;;;13.04;54.10;99874.81;5052951;28;20024;-76
2022/12/12 11:50:55;;;;;;;19.40;11.80;;;;;;;13.00;54.31;99885.06;5051531;28;20146;-77
2022/12/12 11:53:20;;;;;;;29.80;13.80;;;;;;;12.88;54.39;99867.44;5051818;28;20100;-77
2022/12/12 11:55:56;;;;;;;26.38;12.23;;;;;;;12.80;54.19;99845.81;5051155;28;20036;-76
2022/12/12 11:58:42;;;;;;;25.10;12.55;;;;;;;13.00;53.85;99868.88;5050299;28;20027;-76